createdAt,value
2023-01-19T00:00:45.835Z,12.37
2023-01-19T00:03:31.668Z,12.35
2023-01-19T00:06:18.722Z,12.44
2023-01-19T00:09:03.824Z,12.52
2023-01-19T00:11:54.635Z,12.67
2023-01-19T00:14:38.083Z,13.05
2023-01-19T00:17:24.564Z,12.66
2023-01-19T00:20:13.753Z,12.71
2023-01-19T00:22:57.032Z,12.50
2023-01-19T00:25:44.123Z,12.68
2023-01-19T00:28:29.798Z,12.86
2023-01-19T00:31:16.042Z,13.01
2023-01-19T00:33:59.900Z,13.29
2023-01-19T00:36:45.475Z,13.21
2023-01-19T00:39:31.589Z,13.44
2023-01-19T00:42:35.073Z,13.44
2023-01-19T00:45:23.997Z,13.50
2023-01-19T00:48:09.685Z,13.50
2023-01-19T00:50:58.783Z,13.69
2023-01-19T00:53:42.296Z,13.81
2023-01-19T00:56:25.583Z,13.78
2023-01-19T00:59:16.305Z,13.91
2023-01-19T01:02:00.060Z,13.87
2023-01-19T01:04:43.266Z,13.65
2023-01-19T01:07:31.139Z,13.78
2023-01-19T01:10:26.261Z,13.91
2023-01-19T01:13:21.316Z,13.72
2023-01-19T01:16:10.214Z,13.85
2023-01-19T01:18:54.487Z,13.93
2023-01-19T01:21:39.690Z,14.02
2023-01-19T01:24:24.219Z,13.85
2023-01-19T01:27:09.935Z,13.83
2023-01-19T01:32:51.919Z,13.97
2023-01-19T01:35:35.598Z,13.86
2023-01-19T01:38:28.356Z,13.92
2023-01-19T01:41:13.018Z,14.06
2023-01-19T01:44:01.939Z,13.92
2023-01-19T01:46:44.999Z,13.92
2023-01-19T01:49:32.410Z,13.75
2023-01-19T01:52:16.780Z,14.00
2023-01-19T01:55:07.006Z,13.87
2023-01-19T01:57:57.551Z,13.72
2023-01-19T02:00:55.615Z,13.89
2023-01-19T02:03:41.821Z,13.98
2023-01-19T02:06:29.107Z,14.00
2023-01-19T02:09:33.218Z,14.11
2023-01-19T02:12:35.356Z,14.00
2023-01-19T02:15:20.317Z,13.85
2023-01-19T02:18:04.528Z,13.91
2023-01-19T02:20:56.607Z,14.02
2023-01-19T02:23:45.184Z,14.04
2023-01-19T02:26:32.600Z,13.99
2023-01-19T02:29:18.175Z,14.02
2023-01-19T02:32:05.517Z,13.92
2023-01-19T02:34:51.072Z,13.83
2023-01-19T02:37:41.094Z,13.81
2023-01-19T02:40:32.080Z,13.61
2023-01-19T02:43:19.391Z,13.88
2023-01-19T02:46:05.805Z,13.94
2023-01-19T02:48:48.899Z,13.86
2023-01-19T02:51:32.351Z,13.80
2023-01-19T02:54:43.603Z,13.86
2023-01-19T02:57:54.518Z,13.80
2023-01-19T03:00:51.096Z,13.78
2023-01-19T03:03:46.502Z,13.89
2023-01-19T03:06:47.647Z,13.80
2023-01-19T03:09:40.104Z,13.79
2023-01-19T03:12:31.988Z,13.75
2023-01-19T03:15:22.360Z,13.81
2023-01-19T03:18:09.634Z,13.84
2023-01-19T03:21:06.187Z,13.72
2023-01-19T03:23:51.897Z,13.75
2023-01-19T03:26:44.582Z,13.74
2023-01-19T03:29:33.055Z,13.77
2023-01-19T03:32:24.463Z,13.75
2023-01-19T03:35:14.189Z,13.70
2023-01-19T03:37:59.817Z,13.74
2023-01-19T03:40:46.295Z,13.68
2023-01-19T03:43:33.154Z,13.69
2023-01-19T03:46:18.989Z,13.74
2023-01-19T03:49:07.960Z,13.84
2023-01-19T03:51:54.918Z,13.67
2023-01-19T03:54:39.576Z,13.85
2023-01-19T03:57:25.772Z,13.72
2023-01-19T04:00:13.246Z,13.72
2023-01-19T04:03:08.763Z,13.73
2023-01-19T04:05:53.557Z,13.76
2023-01-19T04:08:37.765Z,13.81
2023-01-19T04:11:24.282Z,13.87
2023-01-19T04:14:07.504Z,13.81
2023-01-19T04:16:51.349Z,13.81
2023-01-19T04:19:37.898Z,13.85
2023-01-19T04:22:22.934Z,13.79
2023-01-19T04:25:09.486Z,13.78
2023-01-19T04:27:57.255Z,13.87
2023-01-19T04:30:46.552Z,13.92
2023-01-19T04:33:37.544Z,13.95
2023-01-19T04:36:20.651Z,13.89
2023-01-19T04:39:06.782Z,14.03
2023-01-19T04:41:53.047Z,14.02
2023-01-19T04:44:36.138Z,14.09
2023-01-19T04:47:24.030Z,14.02
2023-01-19T04:50:12.576Z,13.92
2023-01-19T04:52:56.825Z,13.94
2023-01-19T04:55:51.484Z,13.81
2023-01-19T04:58:34.574Z,13.88
2023-01-19T05:01:21.713Z,13.86
2023-01-19T05:04:07.462Z,13.81
2023-01-19T05:06:52.945Z,13.91
2023-01-19T05:09:40.684Z,14.06
2023-01-19T05:12:31.343Z,14.02
2023-01-19T05:15:17.209Z,14.02
2023-01-19T05:18:01.621Z,13.96
2023-01-19T05:20:47.127Z,14.21
2023-01-19T05:23:35.224Z,14.20
2023-01-19T05:26:19.044Z,14.13
2023-01-19T05:29:03.954Z,14.32
2023-01-19T05:31:47.627Z,14.30
2023-01-19T05:34:31.090Z,14.24
2023-01-19T05:37:17.621Z,14.32
2023-01-19T05:40:04.892Z,14.26
2023-01-19T05:42:49.043Z,14.15
2023-01-19T05:45:35.679Z,14.26
2023-01-19T05:48:19.538Z,14.09
2023-01-19T05:51:05.401Z,14.16
2023-01-19T05:53:48.765Z,14.27
2023-01-19T05:56:41.603Z,14.12
2023-01-19T05:59:26.549Z,14.24
2023-01-19T06:02:11.499Z,14.35
2023-01-19T06:04:56.512Z,14.32
2023-01-19T06:07:42.029Z,14.54
2023-01-19T06:10:25.150Z,14.60
2023-01-19T06:13:09.858Z,14.62
2023-01-19T06:15:58.518Z,14.67
2023-01-19T06:18:43.182Z,14.88
2023-01-19T06:21:26.638Z,14.88
2023-01-19T06:24:11.695Z,15.15
2023-01-19T06:26:58.131Z,15.22
2023-01-19T06:29:41.256Z,15.28
2023-01-19T06:32:26.860Z,15.46
2023-01-19T06:35:12.307Z,15.60
2023-01-19T06:37:55.454Z,15.65
2023-01-19T06:40:39.556Z,15.89
2023-01-19T06:43:23.582Z,16.02
2023-01-19T06:46:07.613Z,16.13
2023-01-19T06:48:51.037Z,16.45
2023-01-19T06:51:36.889Z,16.60
2023-01-19T06:54:22.324Z,16.76
2023-01-19T06:57:05.857Z,17.00
2023-01-19T06:59:50.191Z,17.36
2023-01-19T07:02:35.210Z,18.40
2023-01-19T07:05:18.725Z,20.67
2023-01-19T07:08:05.565Z,22.85
2023-01-19T07:11:24.590Z,24.83
2023-01-19T07:13:57.023Z,26.27
2023-01-19T07:16:40.565Z,25.48
2023-01-19T07:19:23.804Z,24.58
2023-01-19T07:22:08.189Z,25.76
2023-01-19T07:24:53.471Z,25.44
2023-01-19T07:27:45.248Z,25.58
2023-01-19T07:30:30.998Z,26.76
2023-01-19T07:33:15.273Z,27.51
2023-01-19T07:35:58.998Z,26.38
2023-01-19T07:38:44.836Z,26.73
2023-01-19T07:41:31.787Z,27.81
2023-01-19T07:44:14.926Z,29.40
2023-01-19T07:46:58.297Z,29.03
2023-01-19T07:49:41.599Z,29.58
2023-01-19T07:52:25.030Z,30.56
2023-01-19T07:55:09.474Z,29.71
2023-01-19T07:57:56.874Z,28.68
2023-01-19T08:00:41.931Z,28.94
2023-01-19T08:03:25.092Z,27.95
2023-01-19T08:06:08.859Z,29.08
2023-01-19T08:08:52.335Z,29.56
2023-01-19T08:11:35.507Z,29.45
2023-01-19T08:14:20.071Z,29.80
2023-01-19T08:17:08.655Z,30.99
2023-01-19T08:19:51.815Z,32.54
2023-01-19T08:22:34.997Z,32.42
2023-01-19T08:25:18.254Z,30.84
2023-01-19T08:28:03.753Z,32.18
2023-01-19T08:30:56.102Z,32.42
2023-01-19T08:33:47.209Z,30.59
2023-01-19T08:36:30.474Z,31.66
2023-01-19T08:39:13.734Z,30.54
2023-01-19T08:41:58.304Z,32.05
2023-01-19T08:44:57.214Z,31.51
2023-01-19T08:47:42.524Z,31.73
2023-01-19T08:50:25.851Z,32.10
2023-01-19T08:53:09.669Z,30.94
2023-01-19T08:56:00.063Z,31.38
2023-01-19T08:58:53.624Z,31.31
2023-01-19T09:01:47.831Z,30.68
2023-01-19T09:04:44.418Z,30.18
2023-01-19T09:07:30.567Z,32.25
2023-01-19T09:10:16.661Z,33.65
2023-01-19T09:12:59.958Z,33.34
2023-01-19T09:15:43.997Z,31.27
2023-01-19T09:18:30.279Z,31.82
2023-01-19T09:21:20.945Z,30.68
2023-01-19T09:24:05.983Z,30.74
2023-01-19T09:26:49.064Z,28.25
2023-01-19T09:29:32.186Z,27.09
2023-01-19T09:32:17.732Z,25.93
2023-01-19T09:35:00.988Z,24.61
2023-01-19T09:37:49.280Z,23.25
2023-01-19T09:40:33.242Z,22.74
2023-01-19T09:43:24.269Z,22.33
2023-01-19T09:46:12.585Z,22.59
2023-01-19T09:48:58.384Z,22.69
2023-01-19T09:51:45.849Z,22.09
2023-01-19T09:54:41.154Z,21.16
2023-01-19T09:57:26.077Z,21.48
2023-01-19T10:00:16.503Z,21.48
2023-01-19T10:03:11.496Z,21.93
2023-01-19T10:06:01.240Z,23.26
2023-01-19T10:08:53.828Z,23.53
2023-01-19T10:11:53.729Z,25.56
2023-01-19T10:14:46.855Z,24.79
2023-01-19T10:17:40.180Z,24.04
2023-01-19T10:20:28.520Z,26.76
2023-01-19T10:23:38.574Z,29.01
2023-01-19T10:26:25.345Z,29.49
2023-01-19T10:29:19.825Z,27.59
2023-01-19T10:32:10.792Z,24.34
2023-01-19T10:34:57.255Z,22.22
2023-01-19T10:37:45.964Z,21.51
2023-01-19T10:40:36.185Z,20.93
2023-01-19T10:43:37.403Z,20.75
2023-01-19T10:46:35.048Z,20.67
2023-01-19T10:49:31.854Z,20.07
2023-01-19T10:52:31.095Z,19.45
2023-01-19T10:55:27.403Z,19.30
2023-01-19T10:58:34.188Z,19.21
2023-01-19T11:01:19.955Z,18.28
2023-01-19T11:04:27.042Z,18.30
2023-01-19T11:07:21.105Z,19.34
2023-01-19T11:10:24.192Z,20.03
2023-01-19T11:13:15.821Z,19.95
2023-01-19T11:16:01.192Z,20.13
2023-01-19T11:18:45.729Z,22.71
2023-01-19T11:21:33.556Z,25.57
2023-01-19T11:24:19.168Z,24.88
2023-01-19T11:27:03.885Z,25.02
2023-01-19T11:29:54.894Z,24.57
2023-01-19T11:32:38.303Z,24.30
2023-01-19T11:35:38.407Z,23.33
2023-01-19T11:38:25.832Z,23.92
2023-01-19T11:41:20.576Z,23.62
2023-01-19T11:44:17.054Z,23.58
2023-01-19T11:47:04.426Z,23.49
2023-01-19T11:49:54.129Z,21.74
2023-01-19T11:52:43.915Z,20.05
2023-01-19T11:55:40.141Z,19.53
2023-01-19T11:58:23.879Z,18.96
2023-01-19T12:01:15.282Z,18.64
2023-01-19T12:04:05.806Z,18.48
2023-01-19T12:06:52.537Z,18.58
2023-01-19T12:09:45.157Z,18.69
2023-01-19T12:12:32.458Z,18.66
2023-01-19T12:15:23.900Z,18.79
2023-01-19T12:18:09.375Z,18.94
2023-01-19T12:20:54.880Z,18.93
2023-01-19T12:23:49.460Z,18.61
2023-01-19T12:26:38.337Z,18.08
2023-01-19T12:29:29.206Z,17.86
2023-01-19T12:32:19.467Z,17.38
2023-01-19T12:35:04.641Z,17.37
2023-01-19T12:37:47.754Z,17.14
2023-01-19T12:40:35.268Z,17.16
2023-01-19T12:43:21.096Z,17.26
2023-01-19T12:46:20.900Z,16.95
2023-01-19T12:49:10.281Z,16.97
2023-01-19T12:51:57.005Z,16.94
2023-01-19T12:54:46.745Z,16.87
2023-01-19T12:57:39.319Z,16.87
2023-01-19T13:00:37.292Z,16.82
2023-01-19T13:04:12.478Z,16.79
2023-01-19T13:07:14.006Z,16.82
2023-01-19T13:09:57.118Z,16.80
2023-01-19T13:13:24.644Z,16.78
2023-01-19T13:16:40.707Z,16.62
2023-01-19T13:19:44.524Z,16.64
2023-01-19T13:23:05.042Z,16.59
2023-01-19T13:26:01.258Z,16.38
2023-01-19T13:28:47.087Z,16.49
2023-01-19T13:31:36.021Z,16.63
2023-01-19T13:34:22.412Z,16.76
2023-01-19T13:37:13.523Z,16.83
2023-01-19T13:39:56.835Z,17.01
2023-01-19T13:42:42.989Z,17.02
2023-01-19T13:45:33.546Z,16.99
2023-01-19T13:48:26.588Z,16.90
2023-01-19T13:51:19.215Z,16.93
2023-01-19T13:54:03.928Z,16.72
2023-01-19T13:56:53.121Z,16.74
2023-01-19T13:59:36.217Z,16.72
2023-01-19T14:02:23.218Z,16.75
2023-01-19T14:05:16.427Z,16.83
2023-01-19T14:08:09.527Z,16.73
2023-01-19T14:11:04.389Z,16.64
2023-01-19T14:13:47.998Z,16.67
2023-01-19T14:16:33.313Z,16.70
2023-01-19T14:19:19.043Z,16.59
2023-01-19T14:22:06.504Z,16.43
2023-01-19T14:24:50.527Z,16.21
2023-01-19T14:27:35.722Z,16.24
2023-01-19T14:30:26.313Z,15.89
2023-01-19T14:33:29.019Z,15.91
2023-01-19T14:36:27.243Z,15.90
2023-01-19T14:39:17.930Z,15.81
2023-01-19T14:42:03.393Z,15.64
2023-01-19T14:44:52.456Z,15.52
2023-01-19T14:47:39.161Z,15.45
2023-01-19T14:50:26.068Z,15.45
2023-01-19T14:53:18.273Z,15.54
2023-01-19T14:56:04.740Z,15.49
2023-01-19T14:58:48.080Z,15.38
2023-01-19T15:01:33.101Z,15.39
2023-01-19T15:04:16.732Z,15.42
2023-01-19T15:06:59.850Z,15.31
2023-01-19T15:09:43.022Z,15.18
2023-01-19T15:12:30.086Z,15.00
2023-01-19T15:15:19.623Z,15.12
2023-01-19T15:18:06.334Z,14.97
2023-01-19T15:23:49.852Z,14.87
2023-01-19T15:26:35.565Z,14.90
2023-01-19T15:29:24.781Z,14.80
2023-01-19T15:32:19.449Z,14.63
2023-01-19T15:35:05.957Z,14.73
2023-01-19T15:37:54.943Z,14.60
2023-01-19T15:40:40.749Z,14.56
2023-01-19T15:43:24.127Z,14.33
2023-01-19T15:46:09.614Z,14.25
2023-01-19T15:48:56.951Z,14.09
2023-01-19T15:51:42.307Z,14.06
2023-01-19T15:54:29.810Z,13.95
2023-01-19T15:57:15.947Z,13.91
2023-01-19T16:00:01.852Z,13.88
2023-01-19T16:02:45.315Z,14.00
2023-01-19T16:05:42.621Z,13.98
2023-01-19T16:08:29.815Z,14.10
2023-01-19T16:11:16.041Z,14.14
2023-01-19T16:13:59.411Z,14.07
2023-01-19T16:16:46.685Z,14.04
2023-01-19T16:19:34.376Z,14.11
2023-01-19T16:22:17.815Z,14.14
2023-01-19T16:25:06.320Z,14.16
2023-01-19T16:27:51.263Z,14.03
2023-01-19T16:30:34.554Z,13.97
2023-01-19T16:33:21.389Z,13.97
2023-01-19T16:36:19.409Z,13.77
2023-01-19T16:39:06.342Z,13.48
2023-01-19T16:41:57.730Z,13.27
2023-01-19T16:44:41.324Z,13.12
2023-01-19T16:47:24.841Z,13.13
2023-01-19T16:50:11.965Z,13.12
2023-01-19T16:52:58.015Z,13.13
2023-01-19T16:55:42.812Z,13.24
2023-01-19T16:58:35.873Z,13.22
2023-01-19T17:01:30.191Z,13.07
2023-01-19T17:04:15.887Z,13.23
2023-01-19T17:06:59.246Z,13.23
2023-01-19T17:09:44.754Z,13.26
2023-01-19T17:12:28.005Z,13.34
2023-01-19T17:15:20.489Z,13.27
2023-01-19T17:18:06.292Z,13.22
2023-01-19T17:20:58.813Z,13.10
2023-01-19T17:23:44.729Z,13.03
2023-01-19T17:26:31.899Z,12.70
2023-01-19T17:29:19.709Z,12.53
2023-01-19T17:32:08.875Z,12.40
2023-01-19T17:37:57.213Z,12.45
2023-01-19T17:40:43.028Z,12.40
2023-01-19T17:43:27.353Z,12.18
2023-01-19T17:46:13.426Z,12.11
2023-01-19T17:49:00.041Z,12.19
2023-01-19T17:51:46.319Z,12.21
2023-01-19T17:54:30.687Z,12.18
2023-01-19T17:57:14.336Z,12.11
2023-01-19T18:00:00.534Z,12.14
2023-01-19T18:02:48.978Z,12.05
2023-01-19T18:05:37.740Z,12.08
2023-01-19T18:08:32.026Z,12.11
2023-01-19T18:11:18.142Z,12.15
2023-01-19T18:14:02.790Z,12.14
2023-01-19T18:16:49.938Z,12.23
2023-01-19T18:19:35.731Z,12.20
2023-01-19T18:22:20.715Z,12.33
2023-01-19T18:25:04.503Z,12.36
2023-01-19T18:27:52.284Z,12.17
2023-01-19T18:30:40.322Z,12.28
2023-01-19T18:33:25.796Z,12.29
2023-01-19T18:36:12.657Z,12.25
2023-01-19T18:38:57.786Z,12.18
2023-01-19T18:41:45.866Z,12.21
2023-01-19T18:44:29.325Z,12.13
2023-01-19T18:47:12.427Z,12.22
2023-01-19T18:52:56.375Z,12.18
2023-01-19T18:55:43.568Z,12.11
2023-01-19T18:58:34.349Z,11.94
2023-01-19T19:01:26.362Z,11.88
2023-01-19T19:04:19.368Z,11.66
2023-01-19T19:07:05.212Z,11.50
2023-01-19T19:09:49.112Z,11.43
2023-01-19T19:12:37.065Z,11.17
2023-01-19T19:15:24.711Z,11.13
2023-01-19T19:18:12.552Z,11.14
2023-01-19T19:20:55.860Z,11.21
2023-01-19T19:23:42.456Z,11.23
2023-01-19T19:26:33.132Z,11.19
2023-01-19T19:29:25.470Z,10.92
2023-01-19T19:32:10.205Z,10.95
2023-01-19T19:34:59.273Z,10.71
2023-01-19T19:37:49.519Z,10.63
2023-01-19T19:40:37.714Z,10.37
2023-01-19T19:46:25.071Z,10.03
2023-01-19T19:49:09.421Z,10.13
2023-01-19T19:51:55.497Z,10.09
2023-01-19T19:54:40.543Z,10.13
2023-01-19T19:57:27.988Z,10.07
2023-01-19T20:00:12.799Z,10.19
2023-01-19T20:02:58.210Z,10.30
2023-01-19T20:05:42.395Z,10.23
2023-01-19T20:08:34.050Z,10.14
2023-01-19T20:11:23.149Z,10.10
2023-01-19T20:14:07.633Z,10.10
2023-01-19T20:17:06.247Z,10.04
2023-01-19T20:19:59.492Z,10.02
2023-01-19T20:22:51.651Z,10.02
2023-01-19T20:25:40.774Z,9.92
2023-01-19T20:28:24.464Z,9.95
2023-01-19T20:31:13.897Z,10.05
2023-01-19T20:34:00.438Z,10.08
2023-01-19T20:36:51.930Z,10.06
2023-01-19T20:39:40.237Z,10.10
2023-01-19T20:42:26.082Z,9.84
2023-01-19T20:45:14.582Z,9.51
2023-01-19T20:47:58.526Z,9.62
2023-01-19T20:50:42.558Z,9.74
2023-01-19T20:53:29.246Z,9.74
2023-01-19T20:56:15.958Z,9.81
2023-01-19T20:59:01.248Z,9.83
2023-01-19T21:01:52.859Z,9.88
2023-01-19T21:06:35.051Z,9.77
2023-01-19T21:09:19.227Z,9.82
2023-01-19T21:12:02.713Z,9.48
2023-01-19T21:14:46.241Z,9.55
2023-01-19T21:17:29.652Z,9.65
2023-01-19T21:20:14.275Z,9.63
2023-01-19T21:22:59.029Z,9.66
2023-01-19T21:25:53.220Z,9.62
2023-01-19T21:28:38.446Z,9.51
2023-01-19T21:31:27.104Z,9.45
2023-01-19T21:34:11.378Z,9.44
2023-01-19T21:36:54.492Z,9.52
2023-01-19T21:39:39.221Z,9.48
2023-01-19T21:42:22.308Z,9.63
2023-01-19T21:45:06.213Z,9.73
2023-01-19T21:47:49.490Z,9.76
2023-01-19T21:50:32.933Z,9.50
2023-01-19T21:53:16.195Z,9.34
2023-01-19T21:56:03.188Z,9.29
2023-01-19T21:58:48.532Z,9.04
2023-01-19T22:01:32.593Z,8.94
2023-01-19T22:04:16.397Z,8.71
2023-01-19T22:07:00.866Z,8.71
2023-01-19T22:09:46.527Z,8.70
2023-01-19T22:12:32.736Z,8.65
2023-01-19T22:15:16.099Z,8.54
2023-01-19T22:18:01.783Z,8.50
2023-01-19T22:20:45.043Z,8.52
2023-01-19T22:23:28.505Z,8.37
2023-01-19T22:26:13.123Z,8.36
2023-01-19T22:29:02.493Z,8.26
2023-01-19T22:31:46.195Z,8.25
2023-01-19T22:34:29.530Z,8.27
2023-01-19T22:37:13.214Z,8.21
2023-01-19T22:39:56.355Z,8.11
2023-01-19T22:42:39.557Z,8.08
2023-01-19T22:45:24.477Z,8.10
2023-01-19T22:48:07.842Z,8.20
2023-01-19T22:50:57.516Z,8.13
2023-01-19T22:53:40.924Z,8.22
2023-01-19T22:56:25.664Z,8.27
2023-01-19T22:59:09.180Z,8.34
2023-01-19T23:01:53.873Z,8.51
2023-01-19T23:04:38.398Z,8.46
2023-01-19T23:07:21.758Z,8.48
2023-01-19T23:10:07.722Z,8.64
2023-01-19T23:12:51.224Z,8.71
2023-01-19T23:15:42.150Z,8.76
2023-01-19T23:18:34.063Z,8.72
2023-01-19T23:21:19.344Z,8.79
2023-01-19T23:24:05.799Z,8.81
2023-01-19T23:26:52.771Z,8.69
2023-01-19T23:29:36.432Z,8.76
2023-01-19T23:32:19.897Z,8.69
2023-01-19T23:35:06.967Z,8.72
2023-01-19T23:37:50.158Z,8.63
2023-01-19T23:40:33.241Z,8.53
2023-01-19T23:43:18.896Z,8.44
2023-01-19T23:46:08.203Z,8.34
2023-01-19T23:48:51.999Z,8.30
2023-01-19T23:51:37.235Z,8.16
2023-01-19T23:54:20.704Z,8.07
2023-01-19T23:57:04.023Z,8.20
2023-01-19T23:59:51.667Z,8.23
